Time;durP1;ratioP1;P1;durP2;ratioP2;P2;SDS_P1;SDS_P2;PMS_P1;PMS_P2;Temp;Humidity;BMP_temperature;BMP_pressure;BME280_temperature;BME280_humidity;BME280_pressure;Samples;Min_cycle;Max_cycle;Signal;HPM_P1;HPM_P2
2023/03/18 00:02:10;;;;;;;13.90;8.25;;;;;;;11.77;81.96;100668.25;5051874;28;20645;-76
2023/03/18 00:04:36;;;;;;;14.63;7.97;;;;;;;11.74;82.38;100673.78;5070895;28;20012;-76
2023/03/18 00:07:01;;;;;;;12.82;8.15;;;;;;;11.74;82.55;100673.78;5071309;28;20036;-77
2023/03/18 00:09:27;;;;;;;11.32;7.68;;;;;;;11.69;82.76;100675.94;5071650;28;20091;-78
2023/03/18 00:11:53;;;;;;;13.88;8.43;;;;;;;11.66;82.95;100676.19;5071625;28;20119;-77
2023/03/18 00:14:19;;;;;;;13.60;8.52;;;;;;;11.64;82.93;100682.56;5053319;28;20024;-77
2023/03/18 00:16:45;;;;;;;14.80;9.05;;;;;;;11.62;82.83;100685.31;5071376;28;20028;-79
2023/03/18 00:19:11;;;;;;;18.83;9.30;;;;;;;11.64;82.92;100686.03;5070025;28;20104;-78
2023/03/18 00:21:38;;;;;;;17.90;8.75;;;;;;;11.61;83.01;100681.00;5054422;28;20039;-79
2023/03/18 00:24:03;;;;;;;13.70;8.05;;;;;;;11.57;83.46;100687.47;5070833;28;20028;-79
2023/03/18 00:26:29;;;;;;;14.18;8.63;;;;;;;11.58;83.41;100689.13;5072160;28;20029;-79
2023/03/18 00:28:56;;;;;;;14.15;9.20;;;;;;;11.56;83.37;100686.63;5054399;28;20025;-77
2023/03/18 00:31:23;;;;;;;13.32;9.07;;;;;;;11.56;84.04;100696.34;5070217;28;20052;-77
2023/03/18 00:33:49;;;;;;;15.18;8.70;;;;;;;11.57;83.80;100692.72;5071443;28;20469;-77
2023/03/18 00:36:15;;;;;;;12.88;8.90;;;;;;;11.57;84.37;100703.28;5066918;28;20032;-77
2023/03/18 00:38:43;;;;;;;13.20;9.10;;;;;;;11.52;84.17;100697.53;5051869;28;20021;-77
2023/03/18 00:41:12;;;;;;;12.45;8.98;;;;;;;11.54;83.97;100698.25;5058292;28;20032;-77
2023/03/18 00:43:51;;;;;;;12.77;8.77;;;;;;;11.52;84.52;100701.00;5069808;28;20465;-77
2023/03/18 00:46:19;;;;;;;15.50;8.50;;;;;;;11.54;84.84;100706.16;5052831;28;20029;-78
2023/03/18 00:48:45;;;;;;;13.38;8.98;;;;;;;11.51;84.84;100709.03;5071284;28;20388;-75
2023/03/18 00:51:13;;;;;;;15.85;8.90;;;;;;;11.51;84.56;100711.69;5049025;28;20025;-76
2023/03/18 00:53:43;;;;;;;17.90;9.15;;;;;;;11.51;84.97;100719.56;5049829;28;20036;-77
2023/03/18 00:56:10;;;;;;;14.43;10.00;;;;;;;11.50;84.75;100723.16;5054363;28;20075;-79
2023/03/18 00:58:36;;;;;;;14.13;8.75;;;;;;;11.48;85.57;100710.13;5057815;28;20100;-79
2023/03/18 01:01:04;;;;;;;19.73;9.30;;;;;;;11.48;85.26;100720.66;5053107;28;20050;-77
2023/03/18 01:03:32;;;;;;;14.68;9.35;;;;;;;11.49;85.18;100716.22;5052295;28;20098;-77
2023/03/18 01:05:59;;;;;;;16.70;9.38;;;;;;;11.50;85.68;100717.91;5068532;28;20024;-77
2023/03/18 01:08:25;;;;;;;14.15;9.13;;;;;;;11.48;86.21;100715.38;5070870;28;20020;-77
2023/03/18 01:10:51;;;;;;;15.30;9.18;;;;;;;11.50;86.77;100713.47;5069679;28;20024;-77
2023/03/18 01:13:17;;;;;;;17.02;9.45;;;;;;;11.48;87.43;100701.38;5068840;28;20035;-77
2023/03/18 01:15:42;;;;;;;15.00;9.77;;;;;;;11.47;87.88;100704.97;5069864;28;20024;-77
2023/03/18 01:18:10;;;;;;;18.65;9.98;;;;;;;11.49;88.77;100708.31;5068944;28;20028;-77
2023/03/18 01:20:37;;;;;;;18.58;9.90;;;;;;;11.48;89.23;100704.03;5051605;28;20415;-77
2023/03/18 01:23:03;;;;;;;16.20;9.65;;;;;;;11.46;89.96;100700.66;5069811;28;20025;-77
2023/03/18 01:25:30;;;;;;;16.33;9.68;;;;;;;11.45;90.52;100699.00;5069912;28;20473;-77
2023/03/18 01:27:57;;;;;;;16.13;9.70;;;;;;;11.41;91.86;100703.69;5062532;28;20029;-77
2023/03/18 01:30:23;;;;;;;17.00;10.18;;;;;;;11.42;92.48;100709.78;5051229;28;20052;-77
2023/03/18 01:32:49;;;;;;;18.90;10.32;;;;;;;11.37;93.88;100707.50;5056988;28;20020;-77
2023/03/18 01:35:15;;;;;;;19.02;10.40;;;;;;;11.36;94.63;100710.28;5068510;28;20085;-77
2023/03/18 01:37:42;;;;;;;19.52;10.18;;;;;;;11.33;95.19;100703.44;5071626;28;20029;-77
2023/03/18 01:40:10;;;;;;;22.25;11.13;;;;;;;11.29;96.73;100702.88;5071130;28;20054;-77
2023/03/18 01:42:36;;;;;;;18.33;11.05;;;;;;;11.26;97.34;100697.00;5069243;28;20087;-78
2023/03/18 01:45:24;;;;;;;21.85;12.40;;;;;;;11.23;98.93;100705.97;5067347;28;20036;-79
2023/03/18 01:47:50;;;;;;;25.77;12.82;;;;;;;11.15;100.00;100704.88;5035608;28;20078;-78
2023/03/18 01:50:22;;;;;;;21.23;12.70;;;;;;;11.09;100.00;100700.94;5053352;28;20025;-78
2023/03/18 01:53:05;;;;;;;20.27;12.75;;;;;;;11.02;100.00;100702.38;5070720;28;20109;-78
2023/03/18 01:55:32;;;;;;;19.70;13.82;;;;;;;11.01;100.00;100705.97;5069440;28;20051;-78
2023/03/18 01:58:00;;;;;;;20.90;13.82;;;;;;;10.94;100.00;100704.78;5069922;28;20499;-78
2023/03/18 02:00:26;;;;;;;21.42;14.25;;;;;;;10.89;100.00;100699.03;5051910;28;20098;-77
2023/03/18 02:02:54;;;;;;;23.20;14.95;;;;;;;10.85;100.00;100705.50;5056019;28;20014;-76
2023/03/18 02:05:23;;;;;;;21.52;14.60;;;;;;;10.82;100.00;100698.69;5069280;28;20028;-77
2023/03/18 02:07:50;;;;;;;22.42;14.80;;;;;;;10.81;100.00;100698.81;5069022;28;20035;-77
2023/03/18 02:10:34;;;;;;;23.10;15.38;;;;;;;10.81;100.00;100701.44;5068775;28;20020;-78
2023/03/18 02:13:09;;;;;;;24.92;15.10;;;;;;;10.78;100.00;100704.28;5052109;28;20431;-77
2023/03/18 02:15:43;;;;;;;24.77;15.65;;;;;;;10.72;100.00;100704.75;5068976;28;20082;-77
2023/03/18 02:18:15;;;;;;;25.80;15.93;;;;;;;10.70;100.00;100715.41;5065426;28;20029;-77
2023/03/18 02:21:06;;;;;;;27.05;15.77;;;;;;;10.72;100.00;100702.13;5062486;28;20055;-77
2023/03/18 02:23:32;;;;;;;26.55;16.17;;;;;;;10.71;100.00;100705.72;5068750;28;20028;-77
2023/03/18 02:26:19;;;;;;;25.40;16.58;;;;;;;10.67;100.00;100708.56;5069305;28;20031;-77
2023/03/18 02:28:46;;;;;;;26.73;17.13;;;;;;;10.62;100.00;100723.03;5069874;28;20056;-76
2023/03/18 02:31:15;;;;;;;23.05;17.15;;;;;;;10.59;100.00;100726.75;5068574;28;20121;-76
2023/03/18 02:33:42;;;;;;;25.98;17.33;;;;;;;10.55;100.00;100733.19;5067109;28;20029;-80
2023/03/18 02:36:22;;;;;;;29.92;18.48;;;;;;;10.52;100.00;100725.53;5067424;28;20488;-76
2023/03/18 02:38:47;;;;;;;28.63;17.33;;;;;;;10.55;100.00;100719.22;5053300;28;20048;-76
2023/03/18 02:41:16;;;;;;;27.17;19.15;;;;;;;10.49;100.00;100731.03;5049139;28;20061;-76
2023/03/18 02:43:42;;;;;;;30.23;18.95;;;;;;;10.50;100.00;100732.72;5052735;28;20020;-77
2023/03/18 02:46:13;;;;;;;24.83;17.75;;;;;;;10.47;100.00;100722.41;5069040;28;20036;-77
2023/03/18 02:48:42;;;;;;;27.48;18.60;;;;;;;10.49;100.00;100730.19;5068928;28;20031;-77
2023/03/18 02:51:10;;;;;;;27.33;19.00;;;;;;;10.46;100.00;100733.91;5059573;28;20497;-77
2023/03/18 02:53:37;;;;;;;29.20;19.17;;;;;;;10.45;100.00;100734.84;5053448;28;20044;-76
2023/03/18 02:56:03;;;;;;;29.40;19.75;;;;;;;10.41;100.00;100745.72;5054598;28;20032;-76
2023/03/18 02:58:29;;;;;;;28.50;19.98;;;;;;;10.42;100.00;100737.72;5069133;28;20025;-77
2023/03/18 03:00:56;;;;;;;28.67;20.38;;;;;;;10.40;100.00;100744.84;5053359;28;20028;-77
2023/03/18 03:03:22;;;;;;;29.27;19.52;;;;;;;10.39;100.00;100751.06;5068793;28;20025;-76
2023/03/18 03:05:48;;;;;;;26.33;19.90;;;;;;;10.39;100.00;100753.69;5047162;28;20024;-76
2023/03/18 03:08:14;;;;;;;27.40;19.90;;;;;;;10.36;100.00;100759.19;5058939;28;20037;-77
2023/03/18 03:10:40;;;;;;;31.05;21.15;;;;;;;10.37;100.00;100763.50;5058155;28;20107;-76
2023/03/18 03:13:08;;;;;;;25.70;19.85;;;;;;;10.36;100.00;100767.06;5065991;28;20119;-77
2023/03/18 03:15:37;;;;;;;28.08;20.48;;;;;;;10.34;100.00;100764.56;5050207;28;20020;-76
2023/03/18 03:18:04;;;;;;;27.55;20.73;;;;;;;10.33;100.00;100767.31;5067667;28;20032;-77
2023/03/18 03:20:34;;;;;;;32.00;20.92;;;;;;;10.34;100.00;100763.72;5067299;28;20503;-77
2023/03/18 03:23:08;;;;;;;31.42;20.50;;;;;;;10.33;100.00;100769.94;5069009;28;20036;-77
2023/03/18 03:25:34;;;;;;;29.27;20.75;;;;;;;10.34;100.00;100763.72;5067113;28;20358;-77
2023/03/18 03:28:01;;;;;;;30.25;21.30;;;;;;;10.32;100.00;100770.88;5060577;28;20086;-77
2023/03/18 03:30:27;;;;;;;25.20;20.55;;;;;;;10.32;100.00;100771.72;5069151;28;20024;-76
2023/03/18 03:32:52;;;;;;;28.90;20.75;;;;;;;10.33;100.00;100769.94;5050588;28;20104;-77
2023/03/18 03:35:19;;;;;;;30.08;21.88;;;;;;;10.32;100.00;100766.47;5066855;28;20024;-77
2023/03/18 03:37:44;;;;;;;25.50;20.85;;;;;;;10.29;100.00;100765.88;5050131;28;20029;-77
2023/03/18 03:40:12;;;;;;;30.52;21.25;;;;;;;10.30;100.00;100768.38;5050480;28;20042;-77
2023/03/18 03:42:38;;;;;;;26.60;21.05;;;;;;;10.33;100.00;100762.88;5065521;28;20117;-77
2023/03/18 03:45:04;;;;;;;27.77;21.02;;;;;;;10.34;100.00;100768.97;5064894;28;20074;-77
2023/03/18 03:47:32;;;;;;;28.48;21.65;;;;;;;10.32;100.00;100770.88;5049692;28;20048;-80
2023/03/18 03:49:57;;;;;;;30.67;22.13;;;;;;;10.30;100.00;100767.53;5071241;28;20150;-77
2023/03/18 03:52:23;;;;;;;29.55;21.83;;;;;;;10.27;100.00;100767.75;5070182;28;20117;-77
2023/03/18 03:54:49;;;;;;;32.97;22.85;;;;;;;10.27;100.00;100778.28;5067581;28;20090;-77
2023/03/18 03:57:15;;;;;;;34.28;21.75;;;;;;;10.26;100.00;100777.44;5068152;28;20103;-77
2023/03/18 03:59:41;;;;;;;29.83;22.98;;;;;;;10.27;100.00;100778.28;5057846;28;20454;-79
2023/03/18 04:02:06;;;;;;;29.00;22.67;;;;;;;10.29;100.00;100774.59;5066245;28;20063;-79
2023/03/18 04:04:32;;;;;;;30.17;23.13;;;;;;;10.27;100.00;100778.28;5068346;28;20441;-77
2023/03/18 04:06:57;;;;;;;29.92;21.85;;;;;;;10.27;100.00;100781.75;5067706;28;20078;-77
2023/03/18 04:09:23;;;;;;;31.55;23.02;;;;;;;10.28;100.00;100785.22;5066672;28;20031;-77
2023/03/18 04:11:48;;;;;;;29.70;23.20;;;;;;;10.27;100.00;100788.81;5050279;28;20500;-80
2023/03/18 04:14:15;;;;;;;33.78;23.08;;;;;;;10.27;100.00;100786.19;5052247;28;20123;-78
2023/03/18 04:16:41;;;;;;;30.33;22.50;;;;;;;10.26;100.00;100793.22;5062327;28;20104;-78
2023/03/18 04:19:07;;;;;;;29.67;23.33;;;;;;;10.25;100.00;100783.66;5047502;28;20044;-77
2023/03/18 04:21:33;;;;;;;29.45;22.95;;;;;;;10.28;100.00;100785.22;5047656;28;20036;-80
2023/03/18 04:23:59;;;;;;;29.13;22.38;;;;;;;10.27;100.00;100788.81;5056405;28;20016;-80
2023/03/18 04:26:25;;;;;;;29.73;23.35;;;;;;;10.25;100.00;100788.09;5066799;28;20032;-77
2023/03/18 04:28:53;;;;;;;30.00;23.48;;;;;;;10.24;100.00;100791.66;5067128;28;20032;-77
2023/03/18 04:31:19;;;;;;;30.48;22.58;;;;;;;10.24;100.00;100789.03;5048985;28;20434;-77
2023/03/18 04:33:45;;;;;;;29.42;23.02;;;;;;;10.24;100.00;100789.03;5058489;28;20112;-77
2023/03/18 04:36:11;;;;;;;32.70;23.38;;;;;;;10.27;100.00;100789.63;5054282;28;20035;-77
2023/03/18 04:38:36;;;;;;;30.67;24.48;;;;;;;10.26;100.00;100787.97;5065270;28;20384;-77
2023/03/18 04:41:01;;;;;;;28.83;23.17;;;;;;;10.25;100.00;100796.81;5066950;28;20441;-77
2023/03/18 04:43:28;;;;;;;28.23;23.42;;;;;;;10.27;100.00;100801.94;5065579;28;20028;-77
2023/03/18 04:45:53;;;;;;;28.13;22.23;;;;;;;10.28;100.00;100811.53;5064559;28;20444;-77
2023/03/18 04:48:18;;;;;;;33.15;24.17;;;;;;;10.25;100.00;100809.13;5071834;28;20122;-77
2023/03/18 04:50:44;;;;;;;31.45;24.48;;;;;;;10.23;100.00;100809.22;5053467;28;20074;-77
2023/03/18 04:53:10;;;;;;;30.92;23.75;;;;;;;10.24;100.00;100807.44;5056880;28;20493;-77
2023/03/18 04:55:36;;;;;;;29.35;24.38;;;;;;;10.25;100.00;100809.94;5064896;28;20053;-77
2023/03/18 04:58:02;;;;;;;29.65;23.80;;;;;;;10.25;100.00;100817.84;5071011;28;20336;-77
2023/03/18 05:00:28;;;;;;;35.65;24.50;;;;;;;10.23;100.00;100817.13;5070778;28;20044;-77
2023/03/18 05:02:53;;;;;;;28.63;22.88;;;;;;;10.20;100.00;100814.72;5071182;28;20044;-77
2023/03/18 05:05:18;;;;;;;33.50;25.08;;;;;;;10.20;100.00;100819.97;5070904;28;20431;-77
2023/03/18 05:07:44;;;;;;;28.63;23.88;;;;;;;10.20;100.00;100821.72;5070127;28;20033;-76
2023/03/18 05:10:10;;;;;;;31.20;24.10;;;;;;;10.20;100.00;100825.22;5058181;28;20023;-76
2023/03/18 05:12:35;;;;;;;33.67;24.23;;;;;;;10.19;100.00;100830.56;5051524;28;20024;-76
2023/03/18 05:15:02;;;;;;;30.58;24.48;;;;;;;10.19;100.00;100823.53;5069943;28;20366;-76
2023/03/18 05:17:27;;;;;;;31.02;24.52;;;;;;;10.19;100.00;100818.25;5054138;28;20029;-76
2023/03/18 05:19:53;;;;;;;28.58;23.23;;;;;;;10.18;100.00;100821.00;5070180;28;20025;-76
2023/03/18 05:22:20;;;;;;;30.33;24.50;;;;;;;10.18;100.00;100818.38;5070161;28;20024;-76
2023/03/18 05:24:47;;;;;;;31.38;23.90;;;;;;;10.17;100.00;100809.66;5070079;28;20028;-76
2023/03/18 05:27:16;;;;;;;32.22;23.63;;;;;;;10.17;100.00;100814.06;5061140;28;20025;-76
2023/03/18 05:29:42;;;;;;;30.88;23.83;;;;;;;10.14;100.00;100804.63;5070342;28;20266;-76
2023/03/18 05:32:09;;;;;;;31.10;24.13;;;;;;;10.09;100.00;100808.53;5048719;28;20024;-77
2023/03/18 05:34:37;;;;;;;27.10;22.98;;;;;;;10.10;100.00;100812.84;5049985;28;20028;-75
2023/03/18 05:37:04;;;;;;;33.40;24.27;;;;;;;10.07;100.00;100802.56;5070075;28;20016;-76
2023/03/18 05:39:31;;;;;;;26.48;22.08;;;;;;;10.07;100.00;100810.44;5050819;28;20113;-76
2023/03/18 05:41:57;;;;;;;30.13;24.23;;;;;;;10.03;100.00;100808.03;5069302;28;20383;-77
2023/03/18 05:44:23;;;;;;;30.95;24.30;;;;;;;10.00;100.00;100813.47;5054967;28;20025;-77
2023/03/18 05:46:51;;;;;;;31.05;24.02;;;;;;;9.99;100.00;100821.47;5059201;28;20044;-77
2023/03/18 05:49:17;;;;;;;33.05;23.70;;;;;;;9.98;100.00;100831.16;5052809;28;20035;-80
2023/03/18 05:51:45;;;;;;;34.05;24.35;;;;;;;9.95;100.00;100836.63;5044646;28;20037;-77
2023/03/18 05:54:11;;;;;;;28.77;23.80;;;;;;;9.93;100.00;100833.28;5049589;28;20020;-77
2023/03/18 05:56:36;;;;;;;28.17;24.05;;;;;;;9.92;100.00;100839.47;5068356;28;20036;-76
2023/03/18 05:59:02;;;;;;;34.30;23.80;;;;;;;9.92;100.00;100852.63;5066005;28;20078;-77
2023/03/18 06:01:29;;;;;;;26.88;23.50;;;;;;;9.87;100.00;100841.59;5049396;28;20040;-76
2023/03/18 06:03:56;;;;;;;30.63;23.33;;;;;;;9.85;100.00;100850.53;5059033;28;20095;-76
2023/03/18 06:06:22;;;;;;;29.80;23.38;;;;;;;9.82;100.00;100851.59;5053114;28;20430;-77
2023/03/18 06:08:47;;;;;;;33.20;23.60;;;;;;;9.81;100.00;100855.19;5069658;28;20025;-77
2023/03/18 06:11:17;;;;;;;30.52;23.38;;;;;;;9.77;100.00;100850.25;5069587;28;20051;-76
2023/03/18 06:13:43;;;;;;;26.80;23.35;;;;;;;9.74;100.00;100846.06;5065956;28;20027;-77
2023/03/18 06:16:10;;;;;;;30.13;22.45;;;;;;;9.73;100.00;100842.59;5068532;28;20103;-77
2023/03/18 06:18:36;;;;;;;29.52;23.60;;;;;;;9.72;100.00;100843.53;5069861;28;20028;-77
2023/03/18 06:21:03;;;;;;;29.48;22.60;;;;;;;9.71;100.00;100848.91;5069485;28;20037;-76
2023/03/18 06:23:28;;;;;;;27.77;22.67;;;;;;;9.68;100.00;100849.94;5069258;28;20082;-76
2023/03/18 06:25:53;;;;;;;26.85;22.25;;;;;;;9.70;100.00;100841.97;5071313;28;20032;-77
2023/03/18 06:28:19;;;;;;;29.05;22.13;;;;;;;9.69;100.00;100845.53;5070759;28;20005;-77
2023/03/18 06:30:44;;;;;;;30.13;22.42;;;;;;;9.71;100.00;100843.66;5070748;28;20024;-76
2023/03/18 06:33:09;;;;;;;27.60;23.20;;;;;;;9.71;100.00;100848.91;5046733;28;20362;-77
2023/03/18 06:35:35;;;;;;;29.05;22.35;;;;;;;9.70;100.00;100855.94;5068651;28;20032;-77
2023/03/18 06:38:01;;;;;;;25.42;22.15;;;;;;;9.71;100.00;100854.16;5049297;28;20475;-77
2023/03/18 06:40:33;;;;;;;27.85;22.75;;;;;;;9.72;100.00;100867.19;5051392;28;20040;-79
2023/03/18 06:42:59;;;;;;;27.13;21.70;;;;;;;9.76;100.00;100869.59;5050496;28;20103;-77
2023/03/18 06:45:25;;;;;;;30.15;22.65;;;;;;;9.76;100.00;100873.06;5066893;28;20294;-77
2023/03/18 06:47:50;;;;;;;26.92;22.75;;;;;;;9.78;100.00;100870.31;5069712;28;20070;-77
2023/03/18 06:50:16;;;;;;;27.65;22.25;;;;;;;9.79;100.00;100867.59;5063606;28;20032;-77
2023/03/18 06:52:42;;;;;;;27.75;22.90;;;;;;;9.82;100.00;100872.63;5054692;28;20040;-76
2023/03/18 06:55:08;;;;;;;25.92;21.95;;;;;;;9.82;100.00;100877.88;5069840;28;20080;-76
2023/03/18 06:57:34;;;;;;;28.95;22.85;;;;;;;9.85;100.00;100877.66;5069202;28;20036;-77
2023/03/18 06:59:59;;;;;;;31.48;23.65;;;;;;;9.88;100.00;100871.34;5052080;28;20085;-76
2023/03/18 07:02:26;;;;;;;27.83;23.67;;;;;;;9.91;100.00;100885.09;5050160;28;20028;-78
2023/03/18 07:04:54;;;;;;;31.42;24.30;;;;;;;9.92;100.00;100881.53;5062302;28;20503;-77
2023/03/18 07:07:21;;;;;;;28.23;23.13;;;;;;;9.96;100.00;100888.25;5052781;28;20035;-76
2023/03/18 07:09:46;;;;;;;31.05;24.23;;;;;;;10.01;100.00;100883.53;5049610;28;20059;-78
2023/03/18 07:12:15;;;;;;;30.42;24.63;;;;;;;10.07;100.00;100892.78;5067904;28;20040;-77
2023/03/18 07:14:41;;;;;;;29.60;24.27;;;;;;;10.14;100.00;100901.88;5068316;28;20433;-77
2023/03/18 07:17:07;;;;;;;26.42;23.45;;;;;;;10.21;100.00;100900.53;5069005;28;20055;-77
2023/03/18 07:19:32;;;;;;;27.75;23.42;;;;;;;10.29;100.00;100899.97;5067679;28;21027;-77
2023/03/18 07:21:58;;;;;;;31.85;23.55;;;;;;;10.36;100.00;100906.47;5069585;28;20077;-76
2023/03/18 07:24:25;;;;;;;26.17;21.33;;;;;;;10.45;100.00;100913.72;5069156;28;20081;-77
2023/03/18 07:26:51;;;;;;;24.20;21.33;;;;;;;10.53;100.00;100913.16;5068793;28;20078;-77
2023/03/18 07:29:17;;;;;;;25.05;21.40;;;;;;;10.62;100.00;100915.13;5050743;28;20030;-76
2023/03/18 07:31:43;;;;;;;24.02;20.77;;;;;;;10.70;100.00;100911.91;5068582;28;20067;-77
2023/03/18 07:34:08;;;;;;;25.33;21.15;;;;;;;10.81;100.00;100907.56;5051381;28;20492;-78
2023/03/18 07:36:35;;;;;;;22.25;19.23;;;;;;;10.93;100.00;100916.34;5067803;28;20027;-77
2023/03/18 07:39:02;;;;;;;22.67;19.85;;;;;;;11.03;100.00;100916.47;5069509;28;20051;-77
2023/03/18 07:41:27;;;;;;;21.25;18.98;;;;;;;11.12;100.00;100924.53;5068258;28;20024;-75
2023/03/18 07:43:54;;;;;;;23.23;19.75;;;;;;;11.20;100.00;100924.78;5068148;28;20578;-78
2023/03/18 07:46:20;;;;;;;21.50;17.85;;;;;;;11.25;100.00;100929.72;5068522;28;20443;-76
2023/03/18 07:48:47;;;;;;;20.92;17.85;;;;;;;11.37;100.00;100930.59;5066566;28;20028;-76
2023/03/18 07:51:14;;;;;;;19.08;17.05;;;;;;;11.42;100.00;100938.97;5068032;28;20036;-76
2023/03/18 07:53:40;;;;;;;19.63;16.95;;;;;;;11.47;100.00;100944.75;5067712;28;20052;-76
2023/03/18 07:56:06;;;;;;;19.92;17.25;;;;;;;11.56;100.00;100936.97;5069334;28;20044;-76
2023/03/18 07:58:32;;;;;;;19.90;17.58;;;;;;;11.70;100.00;100932.44;5046667;28;20025;-76
2023/03/18 08:00:59;;;;;;;17.48;15.40;;;;;;;11.78;100.00;100928.28;5054592;28;20037;-76
2023/03/18 08:03:25;;;;;;;16.35;14.65;;;;;;;11.84;100.00;100930.44;5067802;28;20066;-76
2023/03/18 08:05:50;;;;;;;14.93;13.43;;;;;;;11.92;100.00;100920.13;5052121;28;20020;-77
2023/03/18 08:08:15;;;;;;;14.77;12.95;;;;;;;12.01;100.00;100915.97;5047412;28;20079;-76
2023/03/18 08:10:41;;;;;;;15.60;13.05;;;;;;;12.21;100.00;100911.72;5048301;28;20057;-77
2023/03/18 08:13:07;;;;;;;13.80;12.30;;;;;;;12.35;100.00;100911.44;5048958;28;20078;-77
2023/03/18 08:15:36;;;;;;;14.10;12.43;;;;;;;12.54;100.00;100910.81;5065994;28;20162;-76
2023/03/18 08:18:01;;;;;;;13.10;11.80;;;;;;;12.66;100.00;100909.81;5066665;28;20040;-77
2023/03/18 08:20:27;;;;;;;13.00;10.95;;;;;;;12.77;100.00;100911.56;5066936;28;20028;-77
2023/03/18 08:22:53;;;;;;;12.88;10.70;;;;;;;12.82;98.16;100915.53;5066713;28;20120;-75
2023/03/18 08:25:20;;;;;;;11.27;9.77;;;;;;;12.87;97.47;100912.50;5072742;28;20021;-77
2023/03/18 08:27:46;;;;;;;12.30;10.05;;;;;;;12.98;97.36;100925.66;5072572;28;20403;-79
2023/03/18 08:30:15;;;;;;;12.32;10.45;;;;;;;13.10;97.12;100923.78;5053673;28;20032;-79
2023/03/18 08:32:40;;;;;;;10.85;9.68;;;;;;;13.24;96.11;100922.69;5072453;28;20021;-75
2023/03/18 08:35:06;;;;;;;11.35;9.57;;;;;;;13.31;95.76;100915.91;5054340;28;20070;-76
2023/03/18 08:37:32;;;;;;;11.27;9.18;;;;;;;13.50;94.75;100921.31;5071815;28;20302;-78
2023/03/18 08:39:57;;;;;;;10.20;8.82;;;;;;;13.64;93.99;100922.78;5062219;28;20418;-78
2023/03/18 08:42:23;;;;;;;10.43;8.43;;;;;;;13.77;93.19;100924.25;5065422;28;20017;-78
2023/03/18 08:44:49;;;;;;;10.50;9.10;;;;;;;13.96;92.81;100933.22;5071394;28;20021;-78
2023/03/18 08:47:15;;;;;;;10.30;9.13;;;;;;;14.07;90.93;100927.84;5071524;28;20498;-76
2023/03/18 08:49:41;;;;;;;13.10;8.63;;;;;;;14.13;89.86;100939.72;5071682;28;20084;-77
2023/03/18 08:52:06;;;;;;;10.10;8.93;;;;;;;14.26;89.79;100938.50;5070850;28;20048;-77
2023/03/18 08:54:32;;;;;;;10.43;8.88;;;;;;;14.22;88.93;100955.63;5071289;28;20090;-83
2023/03/18 08:56:59;;;;;;;10.85;8.70;;;;;;;14.04;89.07;100941.34;5062050;28;20025;-76
2023/03/18 08:59:25;;;;;;;9.30;8.30;;;;;;;13.93;89.70;100944.06;5051619;28;20086;-76
2023/03/18 09:01:50;;;;;;;10.63;8.63;;;;;;;14.03;90.11;100942.34;5065858;28;20111;-78
2023/03/18 09:04:17;;;;;;;10.40;8.45;;;;;;;14.21;88.81;100937.22;5068529;28;20028;-76
2023/03/18 09:06:43;;;;;;;12.02;8.40;;;;;;;14.34;87.54;100945.75;5071026;28;20429;-77
2023/03/18 09:09:08;;;;;;;11.38;8.27;;;;;;;14.41;87.76;100944.25;5070137;28;20412;-77
2023/03/18 09:11:34;;;;;;;10.35;8.40;;;;;;;14.49;86.82;100951.56;5051769;28;20033;-77
2023/03/18 09:14:00;;;;;;;11.95;8.90;;;;;;;14.41;85.91;100944.25;5073691;28;20036;-76
2023/03/18 09:16:27;;;;;;;9.68;8.45;;;;;;;14.30;87.01;100947.84;5069502;28;20027;-77
2023/03/18 09:18:53;;;;;;;9.60;7.90;;;;;;;14.33;86.73;100942.28;5069588;28;20019;-78
2023/03/18 09:21:19;;;;;;;10.27;7.25;;;;;;;14.35;87.02;100940.31;5069305;28;20032;-77
2023/03/18 09:23:44;;;;;;;8.77;7.70;;;;;;;14.34;87.31;100940.47;5067730;28;20445;-76
2023/03/18 09:26:11;;;;;;;9.23;6.65;;;;;;;14.28;86.42;100939.19;5068700;28;20162;-76
2023/03/18 09:28:37;;;;;;;8.43;6.05;;;;;;;14.17;84.83;100947.25;5070547;28;20020;-77
2023/03/18 09:31:02;;;;;;;8.95;5.82;;;;;;;14.29;85.50;100946.16;5069370;28;20500;-77
2023/03/18 09:33:28;;;;;;;9.00;6.15;;;;;;;14.58;84.82;100950.72;5060189;28;20051;-76
2023/03/18 09:35:54;;;;;;;8.80;6.43;;;;;;;14.82;83.36;100956.50;5049664;28;20024;-76
2023/03/18 09:38:20;;;;;;;10.73;6.88;;;;;;;15.09;82.83;100954.94;5046395;28;20520;-77
2023/03/18 09:41:11;;;;;;;8.27;6.40;;;;;;;15.32;83.32;100948.38;5069930;28;20027;-77
2023/03/18 09:43:48;;;;;;;9.90;6.40;;;;;;;15.64;82.41;100943.63;5069806;28;20089;-77
2023/03/18 09:46:22;;;;;;;7.20;5.70;;;;;;;16.01;79.27;100942.81;5070194;28;20020;-78
2023/03/18 09:49:15;;;;;;;7.70;5.57;;;;;;;16.35;78.68;100934.22;5061243;28;20025;-78
2023/03/18 09:52:28;;;;;;;8.82;5.20;;;;;;;16.82;75.96;100942.91;5078700;28;20389;-77
2023/03/18 09:55:11;;;;;;;5.82;4.25;;;;;;;17.44;72.15;100936.63;4960816;28;20099;-78
2023/03/18 09:57:45;;;;;;;6.82;4.38;;;;;;;18.20;68.45;100930.56;4953915;28;20042;-77
2023/03/18 10:00:17;;;;;;;8.02;4.20;;;;;;;19.01;63.95;100925.44;5001762;28;20041;-78
2023/03/18 10:02:54;;;;;;;6.00;3.85;;;;;;;19.75;62.11;100923.56;5054720;28;20017;-78
2023/03/18 10:05:30;;;;;;;7.68;4.43;;;;;;;19.63;59.96;100940.94;5044501;28;20107;-78
2023/03/18 10:08:01;;;;;;;6.47;3.13;;;;;;;19.62;58.67;100940.13;5066939;28;20016;-78
2023/03/18 10:10:33;;;;;;;5.03;3.28;;;;;;;19.75;58.04;100942.25;5059827;28;20112;-78
2023/03/18 10:13:19;;;;;;;6.93;2.88;;;;;;;21.06;59.67;100929.91;5059023;28;20111;-78
2023/03/18 10:15:58;;;;;;;4.97;3.20;;;;;;;21.53;53.10;100934.19;5048482;28;20103;-78
2023/03/18 10:18:29;;;;;;;6.10;3.28;;;;;;;21.45;51.90;100928.91;5051254;28;20028;-79
2023/03/18 10:21:16;;;;;;;6.80;3.25;;;;;;;21.92;52.93;100927.75;5032242;28;20025;-77
2023/03/18 10:24:00;;;;;;;8.00;3.53;;;;;;;22.33;54.58;100928.91;5050065;28;20457;-79
2023/03/18 10:26:33;;;;;;;6.35;3.00;;;;;;;20.88;52.91;100932.06;5031552;28;20037;-80
2023/03/18 10:29:07;;;;;;;7.47;3.05;;;;;;;20.45;52.31;100937.00;5048795;28;20151;-77
2023/03/18 10:31:45;;;;;;;5.22;2.80;;;;;;;19.67;57.24;100936.94;5050218;28;20562;-77
2023/03/18 10:34:32;;;;;;;8.48;3.65;;;;;;;19.40;60.29;100940.78;5032621;28;20036;-78
2023/03/18 10:36:57;;;;;;;5.55;2.67;;;;;;;19.62;56.53;100933.94;5027549;28;20112;-78
2023/03/18 10:39:26;;;;;;;5.20;3.15;;;;;;;19.63;57.44;100930.28;5028103;28;20116;-78
2023/03/18 10:41:59;;;;;;;5.90;2.90;;;;;;;19.48;57.08;100934.59;5033791;28;20040;-78
2023/03/18 10:44:33;;;;;;;6.68;3.00;;;;;;;19.26;57.13;100926.28;5049831;28;20111;-79
2023/03/18 10:47:28;;;;;;;5.30;2.20;;;;;;;18.89;59.03;100929.44;5051072;28;20741;-77
2023/03/18 10:49:59;;;;;;;5.28;2.45;;;;;;;18.16;58.24;100919.41;5029998;28;20040;-78
2023/03/18 10:52:44;;;;;;;5.80;2.05;;;;;;;17.74;61.13;100923.88;5050354;28;20504;-76
2023/03/18 10:55:18;;;;;;;5.47;2.65;;;;;;;17.38;61.42;100918.63;5059519;28;20075;-79
2023/03/18 10:57:43;;;;;;;4.28;2.20;;;;;;;17.16;61.51;100921.75;5069295;28;20073;-78
2023/03/18 11:00:36;;;;;;;7.43;2.67;;;;;;;17.12;63.81;100923.06;5052328;28;20024;-79
2023/03/18 11:03:03;;;;;;;5.97;2.70;;;;;;;16.91;63.53;100920.75;5067712;28;20113;-79
2023/03/18 11:05:34;;;;;;;5.60;2.33;;;;;;;16.78;64.69;100926.41;5067382;28;20489;-79
2023/03/18 11:08:07;;;;;;;6.85;2.47;;;;;;;16.89;63.96;100930.69;5067143;28;20035;-79
2023/03/18 11:10:44;;;;;;;4.35;2.40;;;;;;;16.75;64.47;100932.03;5050779;28;20401;-84
2023/03/18 11:13:15;;;;;;;8.07;2.75;;;;;;;16.69;64.87;100927.31;5053276;28;20064;-80
2023/03/18 11:15:48;;;;;;;5.20;2.70;;;;;;;16.61;65.56;100928.06;5069591;28;20024;-83